createdAt,value
2019-01-23T00:00:48.136Z,-2.44
2019-01-23T00:03:52.056Z,-2.43
2019-01-23T00:06:55.852Z,-2.36
2019-01-23T00:09:59.743Z,-2.44
2019-01-23T00:13:03.651Z,-2.44
2019-01-23T00:16:07.581Z,-2.48
2019-01-23T00:19:11.577Z,-2.48
2019-01-23T00:22:15.515Z,-2.53
2019-01-23T00:25:19.309Z,-2.52
2019-01-23T00:28:23.163Z,-2.57
2019-01-23T00:31:27.087Z,-2.49
2019-01-23T00:34:30.934Z,-2.53
2019-01-23T00:37:34.762Z,-2.54
2019-01-23T00:40:38.566Z,-2.60
2019-01-23T00:43:42.417Z,-2.56
2019-01-23T00:46:46.264Z,-2.59
2019-01-23T00:49:50.074Z,-2.64
2019-01-23T00:52:53.935Z,-2.68
2019-01-23T00:55:57.771Z,-2.70
2019-01-23T00:59:01.622Z,-2.73
2019-01-23T01:02:06.171Z,-2.75
2019-01-23T01:05:10.432Z,-2.76
2019-01-23T01:08:14.261Z,-2.76
2019-01-23T01:11:18.207Z,-2.77
2019-01-23T01:14:22.057Z,-2.76
2019-01-23T01:17:25.951Z,-2.78
2019-01-23T01:20:29.943Z,-2.77
2019-01-23T01:23:33.851Z,-2.79
2019-01-23T01:26:37.697Z,-2.81
2019-01-23T01:29:41.531Z,-2.84
2019-01-23T01:32:45.532Z,-2.87
2019-01-23T01:35:49.398Z,-2.90
2019-01-23T01:38:53.288Z,-2.91
2019-01-23T01:41:57.134Z,-3.00
2019-01-23T01:45:01.028Z,-3.05
2019-01-23T01:48:05.365Z,-3.06
2019-01-23T01:51:09.204Z,-3.08
2019-01-23T01:54:13.025Z,-3.10
2019-01-23T01:57:17.029Z,-3.10
2019-01-23T02:00:22.987Z,-3.11
2019-01-23T02:03:26.817Z,-3.12
2019-01-23T02:06:30.785Z,-3.13
2019-01-23T02:09:35.583Z,-3.18
2019-01-23T02:12:39.597Z,-3.22
2019-01-23T02:15:43.438Z,-3.22
2019-01-23T02:18:47.315Z,-3.24
2019-01-23T02:21:51.210Z,-3.26
2019-01-23T02:24:55.039Z,-3.27
2019-01-23T02:27:59.015Z,-3.24
2019-01-23T02:31:02.926Z,-3.27
2019-01-23T02:34:06.874Z,-3.30
2019-01-23T02:37:10.725Z,-3.31
2019-01-23T02:40:17.207Z,-3.31
2019-01-23T02:43:21.120Z,-3.34
2019-01-23T02:46:24.998Z,-3.38
2019-01-23T02:49:28.782Z,-3.38
2019-01-23T02:52:32.608Z,-3.39
2019-01-23T02:55:36.416Z,-3.45
2019-01-23T02:58:40.279Z,-3.45
2019-01-23T03:01:44.124Z,-3.45
2019-01-23T03:04:47.911Z,-3.46
2019-01-23T03:07:51.828Z,-3.50
2019-01-23T03:10:55.652Z,-3.49
2019-01-23T03:13:59.573Z,-3.47
2019-01-23T03:17:03.538Z,-3.44
2019-01-23T03:20:09.152Z,-3.42
2019-01-23T03:23:12.975Z,-3.41
2019-01-23T03:26:16.815Z,-3.41
2019-01-23T03:29:24.570Z,-3.42
2019-01-23T03:32:26.209Z,-3.43
2019-01-23T03:35:30.122Z,-3.44
2019-01-23T03:38:34.121Z,-3.47
2019-01-23T03:41:38.119Z,-3.50
2019-01-23T03:44:41.998Z,-3.50
2019-01-23T03:47:48.149Z,-3.51
2019-01-23T03:50:51.917Z,-3.52
2019-01-23T03:53:55.699Z,-3.52
2019-01-23T03:56:59.626Z,-3.53
2019-01-23T04:00:04.138Z,-3.56
2019-01-23T04:03:08.142Z,-3.55
2019-01-23T04:06:12.019Z,-3.54
2019-01-23T04:09:15.840Z,-3.56
2019-01-23T04:12:19.711Z,-3.55
2019-01-23T04:15:23.592Z,-3.56
2019-01-23T04:18:27.564Z,-3.60
2019-01-23T04:21:31.444Z,-3.58
2019-01-23T04:24:35.261Z,-3.59
2019-01-23T04:27:39.141Z,-3.61
2019-01-23T04:30:42.958Z,-3.65
2019-01-23T04:33:46.763Z,-3.66
2019-01-23T04:36:50.572Z,-3.67
2019-01-23T04:39:54.370Z,-3.72
2019-01-23T04:42:58.275Z,-3.72
2019-01-23T04:46:02.097Z,-3.72
2019-01-23T04:49:05.987Z,-3.75
2019-01-23T04:52:15.194Z,-3.75
2019-01-23T04:55:19.213Z,-3.78
2019-01-23T04:58:23.017Z,-3.79
2019-01-23T05:01:26.976Z,-3.82
2019-01-23T05:04:30.864Z,-3.85
2019-01-23T05:07:34.665Z,-3.91
2019-01-23T05:10:38.490Z,-3.93
2019-01-23T05:13:42.301Z,-3.91
2019-01-23T05:16:46.123Z,-3.89
2019-01-23T05:19:49.948Z,-3.88
2019-01-23T05:22:53.901Z,-3.87
2019-01-23T05:25:57.859Z,-3.92
2019-01-23T05:29:01.697Z,-3.95
2019-01-23T05:32:05.642Z,-4.00
2019-01-23T05:35:09.635Z,-3.99
2019-01-23T05:38:13.535Z,-4.00
2019-01-23T05:41:17.363Z,-4.04
2019-01-23T05:44:22.301Z,-4.06
2019-01-23T05:47:26.172Z,-4.09
2019-01-23T05:50:30.092Z,-4.10
2019-01-23T05:53:33.901Z,-4.11
2019-01-23T05:56:37.789Z,-4.10
2019-01-23T05:59:41.624Z,-4.11
2019-01-23T06:02:45.565Z,-4.11
2019-01-23T06:05:49.520Z,-4.12
2019-01-23T06:08:53.371Z,-4.13
2019-01-23T06:11:57.169Z,-4.09
2019-01-23T06:15:01.094Z,-4.10
2019-01-23T06:18:05.054Z,-4.08
2019-01-23T06:21:08.950Z,-4.10
2019-01-23T06:24:12.817Z,-4.12
2019-01-23T06:27:16.747Z,-4.09
2019-01-23T06:30:23.079Z,-4.11
2019-01-23T06:33:26.882Z,-4.11
2019-01-23T06:36:30.790Z,-4.10
2019-01-23T06:39:34.676Z,-4.09
2019-01-23T06:42:38.678Z,-4.08
2019-01-23T06:45:42.482Z,-4.07
2019-01-23T06:48:46.302Z,-4.06
2019-01-23T06:51:50.129Z,-4.07
2019-01-23T06:54:53.956Z,-4.09
2019-01-23T06:57:57.762Z,-4.11
2019-01-23T07:01:01.592Z,-4.11
2019-01-23T07:04:05.631Z,-4.11
2019-01-23T07:07:09.458Z,-4.12
2019-01-23T07:10:18.912Z,-4.15
2019-01-23T07:13:22.787Z,-4.19
2019-01-23T07:16:26.606Z,-4.22
2019-01-23T07:19:30.434Z,-4.23
2019-01-23T07:22:34.233Z,-4.24
2019-01-23T07:25:38.120Z,-4.27
2019-01-23T07:28:41.922Z,-4.28
2019-01-23T07:31:45.823Z,-4.25
2019-01-23T07:34:49.715Z,-4.24
2019-01-23T07:37:53.628Z,-4.22
2019-01-23T07:40:57.537Z,-4.21
2019-01-23T07:44:01.378Z,-4.16
2019-01-23T07:47:05.258Z,-4.07
2019-01-23T07:50:10.402Z,-4.06
2019-01-23T07:53:14.280Z,-4.02
2019-01-23T07:56:18.108Z,-4.03
2019-01-23T07:59:21.994Z,-3.99
2019-01-23T08:02:25.801Z,-3.95
2019-01-23T08:05:29.672Z,-3.84
2019-01-23T08:08:33.553Z,-3.85
2019-01-23T08:11:37.433Z,-3.85
2019-01-23T08:14:42.205Z,-3.81
2019-01-23T08:17:46.104Z,-3.78
2019-01-23T08:20:50.343Z,-3.79
2019-01-23T08:23:54.156Z,-3.79
2019-01-23T08:26:58.047Z,-3.79
2019-01-23T08:30:01.854Z,-3.75
2019-01-23T08:33:06.043Z,-3.74
2019-01-23T08:36:09.981Z,-3.71
2019-01-23T08:39:13.908Z,-3.71
2019-01-23T08:42:17.702Z,-3.67
2019-01-23T08:45:21.700Z,-3.63
2019-01-23T08:48:25.509Z,-3.59
2019-01-23T08:51:29.333Z,-3.52
2019-01-23T08:54:33.134Z,-3.47
2019-01-23T08:57:36.957Z,-3.43
2019-01-23T09:00:45.777Z,-3.36
2019-01-23T09:03:46.473Z,-3.37
2019-01-23T09:06:50.271Z,-3.36
2019-01-23T09:09:54.085Z,-3.40
2019-01-23T09:12:57.968Z,-3.35
2019-01-23T09:16:01.857Z,-3.28
2019-01-23T09:19:05.749Z,-3.27
2019-01-23T09:22:09.622Z,-3.21
2019-01-23T09:25:15.908Z,-3.16
2019-01-23T09:28:19.731Z,-3.11
2019-01-23T09:31:58.047Z,-3.05
2019-01-23T09:35:22.580Z,-2.99
2019-01-23T09:39:00.566Z,-2.97
2019-01-23T09:42:41.850Z,-2.93
2019-01-23T09:46:45.174Z,-2.87
2019-01-23T09:50:02.069Z,-2.84
2019-01-23T09:53:14.472Z,-2.82
2019-01-23T09:56:19.361Z,-2.92
2019-01-23T09:59:23.176Z,-2.99
2019-01-23T10:02:26.985Z,-3.01
2019-01-23T10:05:30.802Z,-3.02
2019-01-23T10:08:34.696Z,-3.03
2019-01-23T10:11:38.527Z,-3.02
2019-01-23T10:14:42.381Z,-3.00
2019-01-23T10:17:46.267Z,-3.02
2019-01-23T10:20:50.200Z,-2.97
2019-01-23T10:23:53.994Z,-2.90
2019-01-23T10:26:57.963Z,-2.82
2019-01-23T10:30:01.875Z,-2.76
2019-01-23T10:33:05.817Z,-2.78
2019-01-23T10:36:09.840Z,-2.79
2019-01-23T10:39:13.657Z,-2.82
2019-01-23T10:42:17.618Z,-2.84
2019-01-23T10:45:21.577Z,-2.75
2019-01-23T10:48:25.400Z,-2.66
2019-01-23T10:51:29.296Z,-2.57
2019-01-23T10:54:33.153Z,-2.58
2019-01-23T10:57:37.115Z,-2.55
2019-01-23T11:00:41.115Z,-2.49
2019-01-23T11:03:44.988Z,-2.47
2019-01-23T11:06:48.809Z,-2.40
2019-01-23T11:09:52.695Z,-2.34
2019-01-23T11:12:56.515Z,-2.33
2019-01-23T11:16:00.482Z,-2.35
2019-01-23T11:19:04.569Z,-2.34
2019-01-23T11:22:08.447Z,-2.30
2019-01-23T11:25:12.835Z,-2.38
2019-01-23T11:28:16.791Z,-2.33
2019-01-23T11:31:20.717Z,-2.30
2019-01-23T11:34:24.660Z,-2.28
2019-01-23T11:37:28.560Z,-2.27
2019-01-23T11:40:32.607Z,-2.27
2019-01-23T11:43:36.559Z,-2.19
2019-01-23T11:46:40.581Z,-2.15
2019-01-23T11:49:44.400Z,-2.12
2019-01-23T11:52:49.409Z,-2.11
2019-01-23T11:55:53.210Z,-2.09
2019-01-23T11:58:57.023Z,-2.14
2019-01-23T12:02:00.993Z,-2.17
2019-01-23T12:05:06.084Z,-2.19
2019-01-23T12:08:10.161Z,-2.14
2019-01-23T12:11:14.091Z,-2.10
2019-01-23T12:14:17.914Z,-2.03
2019-01-23T12:17:21.731Z,-1.97
2019-01-23T12:20:25.708Z,-2.02
2019-01-23T12:23:29.533Z,-1.98
2019-01-23T12:26:33.444Z,-1.99
2019-01-23T12:29:37.286Z,-1.96
2019-01-23T12:32:41.197Z,-1.92
2019-01-23T12:35:45.087Z,-1.88
2019-01-23T12:38:48.919Z,-1.88
2019-01-23T12:41:52.925Z,-1.85
2019-01-23T12:44:56.843Z,-1.82
2019-01-23T12:48:00.848Z,-1.87
2019-01-23T12:51:04.834Z,-1.86
2019-01-23T12:54:08.747Z,-1.83
2019-01-23T12:57:12.638Z,-1.73
2019-01-23T13:00:24.802Z,-1.69
2019-01-23T13:03:28.772Z,-1.69
2019-01-23T13:06:32.837Z,-1.67
2019-01-23T13:09:36.718Z,-1.63
2019-01-23T13:12:40.806Z,-1.61
2019-01-23T13:15:44.606Z,-1.56
2019-01-23T13:18:48.421Z,-1.55
2019-01-23T13:21:52.252Z,-1.51
2019-01-23T13:24:56.053Z,-1.48
2019-01-23T13:28:01.750Z,-1.47
2019-01-23T13:31:05.719Z,-1.48
2019-01-23T13:34:09.588Z,-1.43
2019-01-23T13:37:13.496Z,-1.43
2019-01-23T13:40:37.026Z,-1.47
2019-01-23T13:43:40.843Z,-1.47
2019-01-23T13:46:44.853Z,-1.48
2019-01-23T13:49:48.662Z,-1.47
2019-01-23T13:52:52.558Z,-1.45
2019-01-23T13:55:56.507Z,-1.48
2019-01-23T13:59:00.403Z,-1.45
2019-01-23T14:02:04.387Z,-1.38
2019-01-23T14:05:09.163Z,-1.40
2019-01-23T14:08:13.129Z,-1.41
2019-01-23T14:11:16.959Z,-1.46
2019-01-23T14:14:20.774Z,-1.43
2019-01-23T14:17:24.613Z,-1.44
2019-01-23T14:20:28.803Z,-1.43
2019-01-23T14:23:32.625Z,-1.39
2019-01-23T14:26:36.427Z,-1.43
2019-01-23T14:29:40.336Z,-1.40
2019-01-23T14:32:44.211Z,-1.37
2019-01-23T14:35:48.396Z,-1.36
2019-01-23T14:38:52.210Z,-1.43
2019-01-23T14:41:56.154Z,-1.42
2019-01-23T14:44:59.963Z,-1.49
2019-01-23T14:48:04.171Z,-1.55
2019-01-23T14:51:08.041Z,-1.57
2019-01-23T14:54:11.848Z,-1.57
2019-01-23T14:57:15.757Z,-1.60
2019-01-23T15:00:25.066Z,-1.62
2019-01-23T15:03:28.913Z,-1.63
2019-01-23T15:06:32.783Z,-1.66
2019-01-23T15:09:36.605Z,-1.69
2019-01-23T15:12:40.536Z,-1.71
2019-01-23T15:15:44.437Z,-1.69
2019-01-23T15:18:48.296Z,-1.69
2019-01-23T15:21:52.116Z,-1.72
2019-01-23T15:24:56.033Z,-1.76
2019-01-23T15:27:59.972Z,-1.79
2019-01-23T15:31:03.973Z,-1.77
2019-01-23T15:34:08.162Z,-1.83
2019-01-23T15:37:11.965Z,-1.83
2019-01-23T15:40:18.941Z,-1.84
2019-01-23T15:43:22.758Z,-1.86
2019-01-23T15:46:26.643Z,-1.90
2019-01-23T15:49:30.611Z,-1.96
2019-01-23T15:52:34.395Z,-1.96
2019-01-23T15:55:38.371Z,-2.01
2019-01-23T15:58:42.238Z,-1.98
2019-01-23T16:01:46.136Z,-1.96
2019-01-23T16:04:49.986Z,-2.03
2019-01-23T16:07:53.866Z,-2.08
2019-01-23T16:10:57.771Z,-2.11
2019-01-23T16:14:01.587Z,-2.18
2019-01-23T16:17:05.597Z,-2.18
2019-01-23T16:20:10.532Z,-2.24
2019-01-23T16:23:14.493Z,-2.30
2019-01-23T16:26:18.386Z,-2.30
2019-01-23T16:29:22.231Z,-2.34
2019-01-23T16:32:31.436Z,-2.39
2019-01-23T16:35:38.494Z,-2.39
2019-01-23T16:38:38.051Z,-2.38
2019-01-23T16:41:41.878Z,-2.35
2019-01-23T16:44:45.773Z,-2.31
2019-01-23T16:47:49.858Z,-2.30
2019-01-23T16:50:53.732Z,-2.44
2019-01-23T16:53:57.559Z,-2.55
2019-01-23T16:57:01.429Z,-2.57
2019-01-23T17:00:07.700Z,-2.56
2019-01-23T17:03:12.183Z,-2.56
2019-01-23T17:06:16.097Z,-2.56
2019-01-23T17:09:20.053Z,-2.59
2019-01-23T17:12:23.881Z,-2.65
2019-01-23T17:15:27.860Z,-2.65
2019-01-23T17:18:31.749Z,-2.63
2019-01-23T17:21:35.546Z,-2.65
2019-01-23T17:24:39.374Z,-2.56
2019-01-23T17:27:43.260Z,-2.56
2019-01-23T17:30:47.166Z,-2.58
2019-01-23T17:33:51.038Z,-2.56
2019-01-23T17:36:54.953Z,-2.57
2019-01-23T17:39:58.749Z,-2.56
2019-01-23T17:43:02.675Z,-2.56
2019-01-23T17:46:06.535Z,-2.54
2019-01-23T17:49:10.431Z,-2.55
2019-01-23T17:52:14.228Z,-2.54
2019-01-23T17:55:21.385Z,-2.55
2019-01-23T17:58:25.270Z,-2.60
2019-01-23T18:01:29.229Z,-2.66
2019-01-23T18:04:33.071Z,-2.69
2019-01-23T18:07:37.070Z,-2.69
2019-01-23T18:10:40.858Z,-2.70
2019-01-23T18:13:44.665Z,-2.73
2019-01-23T18:16:48.533Z,-2.75
2019-01-23T18:19:52.357Z,-2.80
2019-01-23T18:22:56.357Z,-2.86
2019-01-23T18:26:00.238Z,-2.92
2019-01-23T18:29:04.209Z,-2.97
2019-01-23T18:32:09.930Z,-2.99
2019-01-23T18:35:38.437Z,-2.99
2019-01-23T18:38:57.266Z,-2.99
2019-01-23T18:42:33.786Z,-3.01
2019-01-23T18:46:22.611Z,-3.04
2019-01-23T18:50:12.502Z,-3.07
2019-01-23T18:53:16.487Z,-3.14
2019-01-23T18:56:20.359Z,-3.23
2019-01-23T18:59:24.166Z,-3.26
2019-01-23T19:02:28.062Z,-3.27
2019-01-23T19:05:31.950Z,-3.29
2019-01-23T19:08:35.759Z,-3.31
2019-01-23T19:11:39.647Z,-3.30
2019-01-23T19:14:43.722Z,-3.33
2019-01-23T19:17:47.665Z,-3.40
2019-01-23T19:20:51.604Z,-3.45
2019-01-23T19:23:55.498Z,-3.51
2019-01-23T19:26:59.439Z,-3.54
2019-01-23T19:30:09.183Z,-3.59
2019-01-23T19:33:13.506Z,-3.65
2019-01-23T19:36:15.446Z,-3.69
2019-01-23T19:39:19.310Z,-3.73
2019-01-23T19:42:23.132Z,-3.81
2019-01-23T19:45:26.943Z,-3.83
2019-01-23T19:48:30.839Z,-3.86
2019-01-23T19:51:34.796Z,-3.89
2019-01-23T19:54:38.681Z,-3.92
2019-01-23T19:57:42.475Z,-3.98
2019-01-23T20:00:46.356Z,-4.01
2019-01-23T20:03:50.165Z,-4.02
2019-01-23T20:06:54.039Z,-4.01
2019-01-23T20:09:57.927Z,-3.99
2019-01-23T20:13:01.797Z,-4.02
2019-01-23T20:16:05.663Z,-4.10
2019-01-23T20:19:12.997Z,-4.15
2019-01-23T20:22:16.826Z,-4.21
2019-01-23T20:25:22.825Z,-4.35
2019-01-23T20:28:26.750Z,-4.41
2019-01-23T20:31:30.565Z,-4.33
2019-01-23T20:34:34.468Z,-4.21
2019-01-23T20:37:38.275Z,-4.11
2019-01-23T20:40:42.161Z,-4.03
2019-01-23T20:43:45.968Z,-4.02
2019-01-23T20:46:49.870Z,-4.03
2019-01-23T20:49:53.692Z,-4.03
2019-01-23T20:52:57.504Z,-3.97
2019-01-23T20:56:01.338Z,-3.89
2019-01-23T20:59:05.522Z,-3.83
2019-01-23T21:02:09.473Z,-3.77
2019-01-23T21:05:13.373Z,-3.73
2019-01-23T21:08:17.224Z,-3.68
2019-01-23T21:11:21.043Z,-3.67
2019-01-23T21:14:24.950Z,-3.66
2019-01-23T21:17:28.859Z,-3.65
2019-01-23T21:20:35.198Z,-3.62
2019-01-23T21:23:39.029Z,-3.61
2019-01-23T21:26:42.903Z,-3.59
2019-01-23T21:29:46.743Z,-3.60
2019-01-23T21:32:50.538Z,-3.61
2019-01-23T21:35:54.357Z,-3.61
2019-01-23T21:38:58.179Z,-3.59
2019-01-23T21:42:02.061Z,-3.63
2019-01-23T21:45:07.406Z,-3.61
2019-01-23T21:48:11.212Z,-3.60
2019-01-23T21:51:15.134Z,-3.59
2019-01-23T21:54:18.939Z,-3.57
2019-01-23T21:57:22.831Z,-3.57
2019-01-23T22:00:38.527Z,-3.57
2019-01-23T22:03:49.057Z,-3.59
2019-01-23T22:06:47.957Z,-3.59
2019-01-23T22:09:51.856Z,-3.62
2019-01-23T22:12:55.653Z,-3.66
2019-01-23T22:15:59.639Z,-3.66
2019-01-23T22:19:03.418Z,-3.68
2019-01-23T22:22:08.046Z,-3.70
2019-01-23T22:25:13.192Z,-3.71
2019-01-23T22:28:17.005Z,-3.73
2019-01-23T22:31:20.920Z,-3.71
2019-01-23T22:34:24.768Z,-3.73
2019-01-23T22:37:28.573Z,-3.73
2019-01-23T22:40:32.380Z,-3.73
2019-01-23T22:43:36.185Z,-3.73
2019-01-23T22:46:40.016Z,-3.74
2019-01-23T22:49:43.914Z,-3.76
2019-01-23T22:52:48.078Z,-3.77
2019-01-23T22:55:51.902Z,-3.80
2019-01-23T22:58:55.734Z,-3.84
2019-01-23T23:01:59.548Z,-3.89
2019-01-23T23:05:03.433Z,-3.93
2019-01-23T23:08:07.992Z,-3.95
2019-01-23T23:11:11.900Z,-3.98
2019-01-23T23:14:15.730Z,-4.00
2019-01-23T23:17:19.603Z,-4.02
2019-01-23T23:20:23.586Z,-4.06
2019-01-23T23:23:27.474Z,-4.07
2019-01-23T23:26:31.316Z,-4.07
2019-01-23T23:29:35.205Z,-4.08
2019-01-23T23:32:39.107Z,-4.10
2019-01-23T23:35:42.915Z,-4.18
2019-01-23T23:38:46.805Z,-4.16
2019-01-23T23:41:50.618Z,-4.18
2019-01-23T23:44:54.453Z,-4.19
2019-01-23T23:47:58.285Z,-4.21
2019-01-23T23:51:02.196Z,-4.22
2019-01-23T23:54:06.175Z,-4.21
2019-01-23T23:57:10.003Z,-4.25
